Time;durP1;ratioP1;P1;durP2;ratioP2;P2;SDS_P1;SDS_P2;PMS_P1;PMS_P2;Temp;Humidity;BMP_temperature;BMP_pressure;BME280_temperature;BME280_humidity;BME280_pressure;Samples;Min_cycle;Max_cycle;Signal;HPM_P1;HPM_P2
2022/03/17 00:00:32;;;;;;;;;13.50;10.00;;;;;12.32;75.29;101883.41;5060124;28;45816;-67
2022/03/17 00:02:58;;;;;;;;;9.75;9.00;;;;;12.36;75.22;101894.63;5059930;28;45228;-65
2022/03/17 00:05:23;;;;;;;;;12.75;10.50;;;;;12.34;75.36;101893.81;5060078;28;45350;-66
2022/03/17 00:07:48;;;;;;;;;11.25;10.50;;;;;12.32;75.34;101903.41;5060180;28;45315;-66
2022/03/17 00:10:16;;;;;;;;;18.75;14.50;;;;;12.30;75.51;101903.44;5060315;28;45235;-65
2022/03/17 00:12:46;;;;;;;;;12.00;10.50;;;;;12.26;75.48;101904.38;5057844;28;45529;-66
2022/03/17 00:15:12;;;;;;;;;14.50;9.00;;;;;12.27;75.86;101918.25;5059735;28;46966;-66
2022/03/17 00:17:38;;;;;;;;;11.25;10.00;;;;;12.24;75.86;101927.00;5060128;28;45354;-65
2022/03/17 00:20:07;;;;;;;;;20.25;14.75;;;;;12.23;76.00;101935.69;5059810;28;45305;-65
2022/03/17 00:22:33;;;;;;;;;15.25;10.50;;;;;12.19;76.18;101936.59;5059851;28;45505;-65
2022/03/17 00:24:58;;;;;;;;;14.00;10.25;;;;;12.16;76.29;101931.44;5059601;28;46286;-65
2022/03/17 00:27:24;;;;;;;;;15.00;12.00;;;;;12.17;76.56;101933.16;5059823;28;45192;-65
2022/03/17 00:29:50;;;;;;;;;16.25;14.00;;;;;12.13;76.34;101927.13;5060245;28;45225;-65
2022/03/17 00:32:16;;;;;;;;;16.00;13.75;;;;;12.11;76.41;101936.72;5058998;28;45428;-65
2022/03/17 00:37:26;;;;;;;;;17.75;15.50;;;;;12.11;76.66;101954.97;5060086;28;45357;-66
2022/03/17 00:39:53;;;;;;;;;13.25;13.25;;;;;12.08;76.63;101967.19;5059746;28;45369;-65
2022/03/17 00:42:19;;;;;;;;;18.50;16.75;;;;;12.01;77.15;101969.00;5059935;28;45353;-66
2022/03/17 00:44:46;;;;;;;;;20.25;17.00;;;;;11.99;76.90;101969.91;5059467;28;45469;-66
2022/03/17 00:47:12;;;;;;;;;19.50;18.00;;;;;12.03;77.06;101987.25;5059834;28;45316;-66
2022/03/17 00:49:37;;;;;;;;;30.50;23.00;;;;;12.03;77.22;101963.78;5059462;28;45153;-66
2022/03/17 00:52:09;;;;;;;;;26.25;20.50;;;;;12.01;77.31;101983.75;5059708;28;45149;-67
2022/03/17 00:54:35;;;;;;;;;26.75;21.50;;;;;12.03;77.37;101987.25;5059340;28;45959;-66
2022/03/17 00:57:00;;;;;;;;;23.75;18.75;;;;;12.04;77.05;101979.41;5059643;28;45242;-66
2022/03/17 00:59:26;;;;;;;;;27.75;24.00;;;;;12.05;77.32;101985.47;5059375;28;45287;-66
2022/03/17 01:01:51;;;;;;;;;22.00;21.00;;;;;12.06;77.44;101987.19;5059603;28;45509;-65
2022/03/17 01:04:16;;;;;;;;;23.00;20.50;;;;;12.08;77.15;101999.31;5059263;28;46209;-66
2022/03/17 01:06:42;;;;;;;;;20.50;17.50;;;;;12.05;77.55;101995.91;5059577;28;45141;-64
2022/03/17 01:09:07;;;;;;;;;29.50;22.50;;;;;12.05;77.32;101996.75;5059312;28;45315;-65
2022/03/17 01:11:33;;;;;;;;;21.00;19.25;;;;;12.04;77.60;101994.16;5059315;28;45257;-65
2022/03/17 01:13:58;;;;;;;;;29.25;23.75;;;;;12.02;77.44;101998.53;5059170;28;45403;-65
2022/03/17 01:16:23;;;;;;;;;25.75;22.50;;;;;11.98;77.51;102002.03;5059449;28;45269;-64
2022/03/17 01:18:49;;;;;;;;;28.75;19.75;;;;;11.95;77.76;102012.50;5059111;28;45168;-65
2022/03/17 01:21:14;;;;;;;;;24.50;21.25;;;;;11.92;78.13;102018.63;5059238;28;45289;-64
2022/03/17 01:23:39;;;;;;;;;25.50;18.50;;;;;11.88;78.33;102010.00;5058835;28;45330;-64
2022/03/17 01:26:05;;;;;;;;;30.00;22.25;;;;;11.82;78.64;102002.25;5058964;28;45246;-63
2022/03/17 01:28:31;;;;;;;;;32.00;23.00;;;;;11.84;78.18;102012.66;5059166;28;45430;-63
2022/03/17 01:30:56;;;;;;;;;25.75;24.50;;;;;11.83;78.36;102011.81;5059494;28;45338;-64
2022/03/17 01:33:21;;;;;;;;;19.50;19.50;;;;;11.76;78.73;102007.50;5058479;28;46039;-63
2022/03/17 01:35:47;;;;;;;;;26.25;24.50;;;;;11.75;78.90;102013.59;5059165;28;45306;-63
2022/03/17 01:38:12;;;;;;;;;25.50;22.00;;;;;11.72;79.63;102026.66;5059077;28;45384;-64
2022/03/17 01:40:37;;;;;;;;;28.25;22.00;;;;;11.71;79.26;102030.13;5059019;28;45469;-63
2022/03/17 01:43:03;;;;;;;;;24.75;23.50;;;;;11.70;79.24;102033.63;5058562;28;46123;-63
2022/03/17 01:45:29;;;;;;;;;26.50;22.25;;;;;11.70;79.55;102022.34;5062085;28;45373;-63
2022/03/17 01:47:54;;;;;;;;;33.25;25.50;;;;;11.73;79.16;102030.97;5062288;28;45428;-63
2022/03/17 01:50:19;;;;;;;;;25.50;24.00;;;;;11.74;79.31;102032.69;5062557;28;45341;-63
2022/03/17 01:52:46;;;;;;;;;23.50;22.50;;;;;11.78;78.84;102037.03;5062139;28;45425;-64
2022/03/17 01:55:13;;;;;;;;;28.75;24.75;;;;;11.80;79.39;102032.66;5062266;28;45256;-64
2022/03/17 01:57:40;;;;;;;;;28.75;26.00;;;;;11.77;79.50;102035.25;5062241;28;45268;-64
2022/03/17 02:00:08;;;;;;;;;29.50;23.00;;;;;11.74;79.32;102048.31;5062288;28;45608;-64
2022/03/17 02:02:33;;;;;;;;;22.50;21.25;;;;;11.75;79.38;102050.03;5057240;28;46206;-64
2022/03/17 02:04:59;;;;;;;;;25.50;23.00;;;;;11.78;78.98;102060.47;5057693;28;45335;-64
2022/03/17 02:07:24;;;;;;;;;28.00;20.75;;;;;11.77;79.08;102053.50;5060885;28;45389;-64
2022/03/17 02:09:49;;;;;;;;;30.75;24.50;;;;;11.75;79.21;102051.78;5062166;28;45392;-64
2022/03/17 02:15:04;;;;;;;;;23.75;20.00;;;;;11.67;79.01;102072.72;5061937;28;45255;-64
2022/03/17 02:17:31;;;;;;;;;23.50;19.50;;;;;11.64;79.34;102067.53;5061961;28;45258;-64
2022/03/17 02:20:01;;;;;;;;;26.50;20.00;;;;;11.64;79.31;102069.28;5061721;28;45326;-64
2022/03/17 02:22:28;;;;;;;;;26.50;22.00;;;;;11.63;79.28;102084.06;5061595;28;46430;-64
2022/03/17 02:27:48;;;;;;;;;24.75;19.00;;;;;11.62;79.01;102095.34;5061857;28;45230;-64
2022/03/17 02:30:21;;;;;;;;;23.25;20.00;;;;;11.64;79.13;102095.31;5061662;28;45480;-63
2022/03/17 02:32:47;;;;;;;;;19.25;17.25;;;;;11.60;79.20;102099.69;5061395;28;45173;-63
2022/03/17 02:35:22;;;;;;;;;17.50;17.50;;;;;11.60;79.21;102099.69;5061478;28;45233;-63
2022/03/17 02:37:48;;;;;;;;;20.25;18.75;;;;;11.57;79.27;102104.91;5061739;28;45251;-65
2022/03/17 02:40:14;;;;;;;;;22.75;19.75;;;;;11.55;79.27;102104.06;5061298;28;46928;-65
2022/03/17 02:42:39;;;;;;;;;27.25;22.00;;;;;11.53;79.05;102105.84;5061589;28;45970;-66
2022/03/17 02:45:07;;;;;;;;;19.50;18.75;;;;;11.47;78.85;102111.97;5061402;28;45304;-65
2022/03/17 02:47:33;;;;;;;;;18.00;14.75;;;;;11.43;78.86;102125.91;5061614;28;45323;-66
2022/03/17 02:49:59;;;;;;;;;20.00;19.25;;;;;11.40;79.28;102102.47;5061211;28;45453;-65
2022/03/17 02:52:26;;;;;;;;;24.50;17.25;;;;;11.36;79.25;102108.59;5061490;28;46918;-65
2022/03/17 02:54:52;;;;;;;;;19.00;15.75;;;;;11.31;79.69;102135.53;5048164;28;45306;-65
2022/03/17 02:57:19;;;;;;;;;28.00;22.25;;;;;11.31;79.44;102127.72;5060715;28;45424;-65
2022/03/17 02:59:46;;;;;;;;;11.00;11.00;;;;;11.30;79.61;102124.25;5061513;28;45180;-65
2022/03/17 03:02:13;;;;;;;;;20.00;15.50;;;;;11.31;79.57;102125.13;5060931;28;46940;-65
2022/03/17 03:04:39;;;;;;;;;19.00;17.00;;;;;11.32;79.72;102121.66;5061064;28;45284;-65
2022/03/17 03:07:06;;;;;;;;;25.25;18.50;;;;;11.34;79.08;102119.88;5061098;28;45311;-65
2022/03/17 03:09:32;;;;;;;;;11.75;11.75;;;;;11.26;78.78;102128.63;5061311;28;45367;-63
2022/03/17 03:11:58;;;;;;;;;20.50;18.50;;;;;11.19;78.64;102136.47;5060733;28;45162;-63
2022/03/17 03:14:23;;;;;;;;;15.25;12.75;;;;;11.19;78.48;102145.16;5061168;28;45290;-64
2022/03/17 03:16:50;;;;;;;;;23.50;19.00;;;;;11.17;78.00;102148.66;5061017;28;45753;-64
2022/03/17 03:19:16;;;;;;;;;21.75;17.25;;;;;11.13;77.97;102147.81;5060790;28;45438;-63
2022/03/17 03:21:43;;;;;;;;;17.75;15.50;;;;;11.13;77.56;102147.81;5060526;28;46053;-63
2022/03/17 03:24:09;;;;;;;;;16.25;14.50;;;;;11.08;77.68;102152.19;5060733;28;45303;-65
2022/03/17 03:26:35;;;;;;;;;25.75;19.00;;;;;11.04;77.53;102154.84;5060813;28;45331;-63
2022/03/17 03:29:00;;;;;;;;;19.75;14.75;;;;;10.94;77.56;102146.22;5060889;28;45358;-64
2022/03/17 03:31:25;;;;;;;;;19.50;16.25;;;;;10.93;77.79;102154.88;5060136;28;46183;-65
2022/03/17 03:33:51;;;;;;;;;24.00;18.75;;;;;10.87;77.81;102160.13;5059099;28;45290;-67
2022/03/17 03:39:00;;;;;;;;;19.75;16.75;;;;;10.84;78.07;102183.56;5047633;28;45491;-67
2022/03/17 03:41:26;;;;;;;;;19.25;18.00;;;;;10.82;78.09;102180.97;5058065;28;46274;-66
2022/03/17 03:43:51;;;;;;;;;21.25;16.75;;;;;10.79;78.04;102172.28;5058373;28;45290;-66
2022/03/17 03:46:17;;;;;;;;;16.75;14.75;;;;;10.79;77.83;102180.09;5058147;28;45349;-67
2022/03/17 03:48:42;;;;;;;;;18.50;13.00;;;;;10.75;78.06;102181.84;5057993;28;45452;-65
2022/03/17 03:51:08;;;;;;;;;18.50;14.75;;;;;10.73;78.51;102198.34;5057781;28;46674;-65
2022/03/17 03:56:17;;;;;;;;;13.75;7.00;;;;;10.68;77.88;102205.31;5060352;28;45185;-66
2022/03/17 03:58:43;;;;;;;;;14.50;14.00;;;;;10.62;78.22;102219.19;5060263;28;45311;-65
2022/03/17 04:01:08;;;;;;;;;12.75;10.75;;;;;10.49;77.16;102228.75;5060045;28;46129;-66
2022/03/17 04:03:34;;;;;;;;;19.00;13.00;;;;;10.46;76.89;102239.19;5059916;28;45169;-64
2022/03/17 04:05:59;;;;;;;;;9.50;7.00;;;;;10.42;77.00;102223.59;5060077;28;45893;-64
2022/03/17 04:08:25;;;;;;;;;18.25;10.75;;;;;10.43;76.69;102234.00;5056886;28;45498;-63
2022/03/17 04:10:50;;;;;;;;;15.00;13.00;;;;;10.42;75.96;102260.00;5059564;28;45225;-65
2022/03/17 04:13:15;;;;;;;;;18.25;14.00;;;;;10.38;75.95;102242.66;5059402;28;45434;-65
2022/03/17 04:15:41;;;;;;;;;13.25;9.75;;;;;10.32;75.49;102249.59;5059754;28;45386;-65
2022/03/17 04:18:06;;;;;;;;;18.50;12.25;;;;;10.21;75.12;102263.47;5059501;28;45310;-67
2022/03/17 04:20:32;;;;;;;;;13.25;10.00;;;;;10.27;75.77;102253.09;5057116;28;45897;-66
2022/03/17 04:22:58;;;;;;;;;12.25;11.50;;;;;10.26;75.64;102270.41;5065395;28;45248;-65
2022/03/17 04:25:24;;;;;;;;;17.75;14.75;;;;;10.22;75.26;102284.28;5059424;28;45353;-65
2022/03/17 04:27:49;;;;;;;;;14.25;13.00;;;;;10.19;75.18;102276.44;5058472;28;45453;-65
2022/03/17 04:30:14;;;;;;;;;14.75;9.50;;;;;10.18;75.79;102281.63;5057415;28;45502;-65
2022/03/17 04:32:40;;;;;;;;;9.75;9.50;;;;;10.21;75.30;102289.44;5057326;28;45457;-66
2022/03/17 04:35:07;;;;;;;;;13.00;12.25;;;;;10.23;75.55;102286.00;5057401;28;45311;-66
2022/03/17 04:37:32;;;;;;;;;14.00;13.25;;;;;10.25;75.37;102283.41;5057506;28;45366;-64
2022/03/17 04:39:58;;;;;;;;;9.25;7.50;;;;;10.24;74.70;102302.47;5057385;28;46297;-64
2022/03/17 04:42:23;;;;;;;;;12.75;11.75;;;;;10.22;74.35;102306.78;5058132;28;45591;-65
2022/03/17 04:44:48;;;;;;;;;14.50;12.00;;;;;10.22;74.77;102299.88;5059823;28;45177;-65
2022/03/17 04:47:15;;;;;;;;;9.50;7.75;;;;;10.23;74.35;102308.53;5059664;28;45225;-64
2022/03/17 04:49:41;;;;;;;;;12.00;10.75;;;;;10.27;74.69;102320.63;5059248;28;46074;-64
2022/03/17 04:53:26;;;;;;;;;15.00;11.75;;;;;10.26;73.45;102330.16;5059694;28;45405;-64
2022/03/17 04:54:52;;;;;;;;;8.00;6.75;;;;;10.21;73.78;102316.31;5059397;27;45259;-64
2022/03/17 04:57:18;;;;;;;;;9.00;8.00;;;;;10.19;73.95;102325.78;5059613;28;45282;-64
2022/03/17 04:59:43;;;;;;;;;8.50;7.00;;;;;10.16;73.47;102319.72;5059180;28;45430;-64
2022/03/17 05:02:10;;;;;;;;;8.25;7.00;;;;;10.18;73.28;102329.25;5059411;28;45370;-64
2022/03/17 05:04:36;;;;;;;;;8.50;8.00;;;;;10.16;73.66;102332.72;5059246;28;45141;-64
2022/03/17 05:07:01;;;;;;;;;4.50;4.50;;;;;10.17;73.24;102329.25;5059616;28;45167;-64
2022/03/17 05:09:26;;;;;;;;;9.00;8.00;;;;;10.18;73.33;102346.56;5059170;28;46437;-64
2022/03/17 05:11:53;;;;;;;;;11.75;9.00;;;;;10.18;73.59;102334.44;5059268;28;45216;-64
2022/03/17 05:14:19;;;;;;;;;6.75;5.50;;;;;10.16;72.94;102325.78;5058199;28;45311;-64
2022/03/17 05:16:44;;;;;;;;;4.50;3.00;;;;;10.12;73.28;102334.47;5059267;28;45237;-63
2022/03/17 05:19:11;;;;;;;;;10.50;8.25;;;;;10.13;73.62;102346.59;5060416;28;46032;-63
2022/03/17 05:21:36;;;;;;;;;6.25;6.00;;;;;10.12;73.53;102346.59;5062667;28;45338;-64
2022/03/17 05:24:01;;;;;;;;;7.00;5.50;;;;;10.12;73.42;102352.66;5078250;28;45815;-63
2022/03/17 05:26:27;;;;;;;;;8.00;3.00;;;;;10.13;73.53;102359.56;5062456;28;45398;-63
2022/03/17 05:28:52;;;;;;;;;8.00;8.00;;;;;10.12;73.80;102360.44;5062313;28;46306;-64
2022/03/17 05:31:17;;;;;;;;;12.25;10.25;;;;;10.10;73.37;102371.69;5062591;28;45322;-64
2022/03/17 05:33:43;;;;;;;;;10.00;8.50;;;;;10.11;73.39;102378.63;5062238;28;45320;-64
2022/03/17 05:36:08;;;;;;;;;12.00;8.25;;;;;10.10;73.91;102382.09;5062645;28;45692;-65
2022/03/17 05:38:33;;;;;;;;;6.75;6.00;;;;;10.09;73.77;102369.97;5062366;28;46073;-64
2022/03/17 05:41:00;;;;;;;;;12.00;7.75;;;;;10.13;73.62;102388.16;5062468;28;45367;-64
2022/03/17 05:43:25;;;;;;;;;8.00;8.00;;;;;10.12;73.75;102389.00;5062432;28;45322;-64
2022/03/17 05:45:51;;;;;;;;;8.00;8.00;;;;;10.19;73.67;102393.34;5062689;28;45480;-64
2022/03/17 05:48:16;;;;;;;;;9.00;8.00;;;;;10.24;73.90;102394.25;5061801;28;45165;-64
2022/03/17 05:50:43;;;;;;;;;8.50;4.00;;;;;10.25;73.66;102400.31;5062281;28;45319;-64
2022/03/17 05:53:10;;;;;;;;;9.00;7.75;;;;;10.25;73.67;102397.72;5062181;28;45227;-64
2022/03/17 05:55:37;;;;;;;;;10.50;7.50;;;;;10.25;73.57;102411.59;5062008;28;45351;-65
2022/03/17 05:58:03;;;;;;;;;9.00;7.00;;;;;10.23;73.71;102402.06;5062009;28;46182;-65
2022/03/17 06:00:29;;;;;;;;;11.00;7.00;;;;;10.21;73.86;102416.75;5062051;28;45735;-65
2022/03/17 06:02:57;;;;;;;;;8.75;8.75;;;;;10.17;73.88;102418.47;5061859;28;45374;-64
2022/03/17 06:05:25;;;;;;;;;11.50;8.75;;;;;10.13;73.61;102419.31;5061921;28;45249;-64
2022/03/17 06:07:53;;;;;;;;;12.50;8.00;;;;;10.14;74.19;102423.66;5048533;28;47514;-64
2022/03/17 06:10:24;;;;;;;;;10.75;9.00;;;;;10.16;74.34;102429.72;5061588;28;45353;-64
2022/03/17 06:12:51;;;;;;;;;8.00;8.00;;;;;10.15;73.90;102435.78;5061719;28;45331;-64
2022/03/17 06:15:18;;;;;;;;;7.50;7.25;;;;;10.04;73.30;102440.09;5061442;28;45325;-64
2022/03/17 06:17:49;;;;;;;;;8.50;8.00;;;;;9.91;72.94;102452.19;5061358;28;45445;-64
2022/03/17 06:20:20;;;;;;;;;8.50;7.50;;;;;9.84;73.63;102440.06;5061340;28;45734;-63
2022/03/17 06:22:48;;;;;;;;;14.00;9.00;;;;;9.80;73.56;102450.41;5061792;28;45330;-66
2022/03/17 06:25:16;;;;;;;;;7.50;7.00;;;;;9.74;73.81;102448.66;5060793;28;45186;-65
2022/03/17 06:27:43;;;;;;;;;8.00;6.75;;;;;9.79;73.50;102474.63;5061430;28;46415;-64
2022/03/17 06:30:11;;;;;;;;;12.50;8.00;;;;;9.79;73.87;102474.63;5060603;28;45670;-63
2022/03/17 06:32:39;;;;;;;;;6.50;6.00;;;;;9.79;72.63;102480.69;5060944;28;45278;-63
2022/03/17 06:35:14;;;;;;;;;9.25;7.25;;;;;9.81;72.79;102493.69;5061069;28;45441;-62
2022/03/17 06:37:39;;;;;;;;;12.00;9.75;;;;;9.81;72.69;102499.78;5060592;28;46933;-63
2022/03/17 06:40:06;;;;;;;;;10.75;8.25;;;;;9.83;72.73;102499.78;5060630;28;45416;-74
2022/03/17 06:42:32;;;;;;;;;10.50;8.25;;;;;9.85;72.98;102498.06;5076794;28;45325;-68
2022/03/17 06:44:58;;;;;;;;;6.75;6.25;;;;;9.89;72.10;102521.44;5059876;28;45357;-68
2022/03/17 06:47:23;;;;;;;;;7.50;6.75;;;;;9.88;71.82;102524.88;5060321;28;46312;-70
2022/03/17 06:49:49;;;;;;;;;10.25;5.75;;;;;9.86;71.58;102529.22;5060274;28;45268;-66
2022/03/17 06:52:14;;;;;;;;;8.00;7.00;;;;;9.89;71.88;102526.63;5061509;28;45299;-67
2022/03/17 06:54:39;;;;;;;;;10.00;7.50;;;;;9.91;71.35;102537.00;5060516;28;45354;-67
2022/03/17 06:57:05;;;;;;;;;6.25;4.00;;;;;9.93;71.02;102541.34;5060778;28;46241;-67
2022/03/17 06:59:30;;;;;;;;;9.25;5.75;;;;;9.91;71.16;102540.47;5060792;28;45343;-68
2022/03/17 07:01:56;;;;;;;;;11.50;6.00;;;;;9.90;70.89;102545.66;5059711;28;45307;-69
2022/03/17 07:04:21;;;;;;;;;3.50;3.50;;;;;9.91;70.84;102550.88;5060638;28;45215;-68
2022/03/17 07:06:46;;;;;;;;;8.00;4.00;;;;;9.89;70.05;102580.28;5060720;28;45954;-67
2022/03/17 07:09:13;;;;;;;;;6.00;6.00;;;;;9.84;69.76;102569.03;5060617;28;45217;-67
2022/03/17 07:11:39;;;;;;;;;5.00;4.00;;;;;9.79;69.18;102555.13;5060681;28;45305;-68
2022/03/17 07:14:04;;;;;;;;;7.50;6.50;;;;;9.77;69.52;102560.31;5060574;28;45312;-66
2022/03/17 07:16:29;;;;;;;;;6.00;4.00;;;;;9.72;68.74;102567.22;5060596;28;46341;-68
2022/03/17 07:18:55;;;;;;;;;10.00;7.50;;;;;9.69;69.95;102567.22;5052402;28;45731;-67
2022/03/17 07:21:20;;;;;;;;;6.00;5.75;;;;;9.69;68.97;102570.66;5048503;28;45339;-67
2022/03/17 07:23:46;;;;;;;;;7.00;4.00;;;;;9.73;69.16;102576.75;5052388;28;45799;-68
2022/03/17 07:26:11;;;;;;;;;5.50;5.50;;;;;9.79;71.92;102589.75;5055451;28;45412;-58
2022/03/17 07:28:37;;;;;;;;;8.00;8.00;;;;;10.18;76.19;102590.78;5050202;28;45291;-57
2022/03/17 07:31:02;;;;;;;;;6.00;5.50;;;;;10.45;72.70;102587.47;5050594;28;45275;-57
2022/03/17 07:33:27;;;;;;;;;5.50;3.75;;;;;10.72;71.67;102597.06;5053224;28;45431;-57
2022/03/17 07:35:53;;;;;;;;;6.75;4.00;;;;;10.89;72.77;102606.63;5050717;28;46005;-53
2022/03/17 07:38:19;;;;;;;;;6.00;6.00;;;;;11.01;70.75;102620.47;5050566;28;45319;-53
2022/03/17 07:40:46;;;;;;;;;8.25;6.75;;;;;11.16;73.71;102607.50;5049790;28;45379;-53
2022/03/17 07:43:12;;;;;;;;;6.00;3.00;;;;;11.45;73.05;102612.69;5050923;28;45516;-53
2022/03/17 07:45:37;;;;;;;;;9.75;6.75;;;;;11.61;71.07;102608.31;5050322;28;46202;-52
2022/03/17 07:48:05;;;;;;;;;5.00;3.75;;;;;11.62;64.87;102621.34;5050118;28;45337;-54
2022/03/17 07:50:32;;;;;;;;;12.00;7.25;;;;;11.62;67.45;102621.34;5053115;28;46233;-67
2022/03/17 07:52:58;;;;;;;;;4.00;2.00;;;;;11.39;65.17;102615.28;5059919;28;45273;-66
2022/03/17 07:55:23;;;;;;;;;6.75;5.00;;;;;11.21;66.89;102624.84;5059672;28;47388;-66
2022/03/17 07:57:49;;;;;;;;;3.25;2.50;;;;;11.01;65.86;102617.88;5058167;28;45266;-67
2022/03/17 08:00:15;;;;;;;;;11.75;6.75;;;;;10.92;67.08;102629.16;5059787;28;45375;-64
2022/03/17 08:02:41;;;;;;;;;7.50;5.50;;;;;10.78;65.16;102659.47;5059601;28;45428;-63
2022/03/17 08:05:08;;;;;;;;;5.50;4.00;;;;;10.60;66.50;102635.16;5059824;28;46012;-65
2022/03/17 08:07:34;;;;;;;;;6.25;6.00;;;;;10.51;66.86;102642.06;5059710;28;45715;-64
2022/03/17 08:09:59;;;;;;;;;6.00;5.00;;;;;10.42;65.29;102645.50;5060227;28;45297;-65
2022/03/17 08:12:31;;;;;;;;;13.00;10.25;;;;;10.32;66.14;102644.59;5059376;28;45520;-65
2022/03/17 08:14:57;;;;;;;;;7.50;7.50;;;;;10.27;66.34;102653.25;5059728;28;46644;-65
2022/03/17 08:17:23;;;;;;;;;9.50;8.00;;;;;10.17;66.77;102659.22;5059214;28;45798;-64
2022/03/17 08:19:48;;;;;;;;;9.00;8.00;;;;;10.18;67.27;102664.41;5059855;28;45185;-64
2022/03/17 08:22:13;;;;;;;;;13.00;9.25;;;;;10.22;66.48;102668.81;5059753;28;45161;-64
2022/03/17 08:24:39;;;;;;;;;8.50;8.25;;;;;10.27;67.62;102674.91;5064122;28;46957;-67
2022/03/17 08:27:04;;;;;;;;;12.25;9.25;;;;;10.26;66.70;102696.53;5059020;28;45256;-63
2022/03/17 08:29:30;;;;;;;;;13.00;11.75;;;;;10.17;66.59;102677.41;5075360;28;45252;-62
2022/03/17 08:31:56;;;;;;;;;11.75;7.25;;;;;10.12;66.78;102679.97;5058362;28;45358;-61
2022/03/17 08:34:21;;;;;;;;;6.75;6.00;;;;;10.05;66.42;102692.06;5053544;28;46149;-62
2022/03/17 08:36:49;;;;;;;;;10.25;8.00;;;;;9.95;66.54;102690.25;5059380;28;45327;-62
2022/03/17 08:39:15;;;;;;;;;9.00;7.00;;;;;10.04;67.16;102705.06;5059854;28;45370;-61
2022/03/17 08:41:40;;;;;;;;;15.50;13.25;;;;;10.06;67.24;102698.13;5059667;28;45439;-61
2022/03/17 08:44:06;;;;;;;;;12.75;8.00;;;;;10.06;66.69;102716.31;5059739;28;46227;-62
2022/03/17 08:49:24;;;;;;;;;9.00;8.00;;;;;10.14;66.97;102732.81;5059490;28;45449;-61
2022/03/17 08:51:56;;;;;;;;;10.00;7.75;;;;;10.24;66.78;102733.78;5059438;28;45374;-61
2022/03/17 08:54:23;;;;;;;;;14.00;9.00;;;;;10.27;66.66;102732.06;5060229;28;46438;-63
2022/03/17 08:56:50;;;;;;;;;13.00;7.75;;;;;10.32;66.87;102743.34;5078306;27;45300;-63
2022/03/17 08:59:15;;;;;;;;;12.75;11.50;;;;;10.25;66.32;102738.13;5062664;28;45557;-61
2022/03/17 09:01:40;;;;;;;;;9.75;8.00;;;;;10.25;67.06;102745.91;5062916;28;45455;-61
2022/03/17 09:04:06;;;;;;;;;8.50;8.00;;;;;10.22;65.80;102746.78;5062338;28;46111;-60
2022/03/17 09:06:31;;;;;;;;;11.75;7.50;;;;;10.20;66.19;102751.03;5062749;28;45270;-62
2022/03/17 09:08:57;;;;;;;;;13.75;8.75;;;;;10.22;66.75;102761.50;5062575;28;45421;-62
2022/03/17 09:11:22;;;;;;;;;10.25;8.50;;;;;10.23;66.65;102761.50;5062742;28;45228;-63
2022/03/17 09:13:51;;;;;;;;;13.25;9.25;;;;;10.29;66.47;102752.88;5062506;28;45593;-64
2022/03/17 09:16:17;;;;;;;;;10.25;8.25;;;;;10.34;66.94;102753.75;5062924;28;45505;-62
2022/03/17 09:18:42;;;;;;;;;9.00;7.00;;;;;10.42;66.47;102765.06;5062451;28;45322;-65
2022/03/17 09:21:10;;;;;;;;;10.25;10.00;;;;;10.44;66.19;102765.09;5056023;28;45344;-62
2022/03/17 09:23:36;;;;;;;;;18.75;12.75;;;;;10.48;66.58;102769.44;5054702;28;47162;-62
2022/03/17 09:26:01;;;;;;;;;13.50;9.00;;;;;10.51;65.75;102765.13;5058262;28;45288;-60
2022/03/17 09:28:27;;;;;;;;;16.75;12.25;;;;;10.55;66.03;102787.66;5053540;28;45230;-61
2022/03/17 09:30:56;;;;;;;;;6.50;5.25;;;;;10.54;66.42;102767.72;5053174;28;45524;-64
2022/03/17 09:33:26;;;;;;;;;14.00;8.50;;;;;10.61;65.41;102777.31;5054225;28;46182;-64
2022/03/17 09:35:57;;;;;;;;;14.00;9.75;;;;;10.56;65.32;102794.59;5051522;28;45372;-64
2022/03/17 09:38:24;;;;;;;;;18.25;13.00;;;;;10.51;65.79;102791.09;5061403;28;45491;-65
2022/03/17 09:40:49;;;;;;;;;15.00;9.00;;;;;10.48;65.97;102798.03;5062231;28;45427;-64
2022/03/17 09:43:28;;;;;;;;;17.25;12.00;;;;;10.46;65.79;102787.63;5059565;28;45413;-63
2022/03/17 09:45:58;;;;;;;;;10.50;9.25;;;;;10.40;65.87;102795.38;5048628;28;45467;-64
2022/03/17 09:48:25;;;;;;;;;14.75;12.00;;;;;10.38;66.29;102799.69;5061897;28;45433;-63
2022/03/17 09:50:56;;;;;;;;;12.25;12.25;;;;;10.47;66.46;102812.75;5062298;28;45473;-63
2022/03/17 09:53:25;;;;;;;;;13.00;12.00;;;;;10.50;65.09;102799.78;5049207;28;46521;-63
2022/03/17 09:55:51;;;;;;;;;16.50;10.00;;;;;10.53;65.50;102799.78;5061803;28;45894;-63
2022/03/17 09:58:17;;;;;;;;;10.00;9.50;;;;;10.54;66.04;102801.53;5062273;28;45405;-63
2022/03/17 10:00:50;;;;;;;;;12.75;12.75;;;;;10.51;66.12;102805.84;5061704;28;45446;-63
2022/03/17 10:03:25;;;;;;;;;16.50;13.75;;;;;10.47;66.03;102809.28;5061903;28;45390;-63
2022/03/17 10:05:53;;;;;;;;;15.50;12.50;;;;;10.51;66.35;102811.03;5061838;28;45845;-63
2022/03/17 10:08:20;;;;;;;;;13.25;9.00;;;;;10.60;65.39;102809.34;5062296;28;45232;-64
2022/03/17 10:10:47;;;;;;;;;10.25;8.50;;;;;10.67;64.98;102828.47;5061703;28;45471;-63
2022/03/17 10:13:17;;;;;;;;;9.25;9.25;;;;;10.66;64.11;102822.41;5061663;27;47158;-63
2022/03/17 10:16:04;;;;;;;;;13.75;9.50;;;;;10.64;64.50;102816.31;5061727;28;45426;-64
2022/03/17 10:18:30;;;;;;;;;9.25;6.50;;;;;10.71;64.96;102826.75;5061782;28;45453;-63
2022/03/17 10:21:24;;;;;;;;;13.50;8.00;;;;;10.75;64.29;102813.75;5061982;28;45520;-64
2022/03/17 10:23:54;;;;;;;;;9.50;8.00;;;;;10.81;64.77;102829.44;5061502;28;46929;-66
2022/03/17 10:26:40;;;;;;;;;10.25;8.50;;;;;10.79;62.79;102831.13;5061261;28;45331;-63
2022/03/17 10:29:12;;;;;;;;;12.50;12.00;;;;;10.82;63.71;102832.91;5048490;28;45186;-65
2022/03/17 10:32:12;;;;;;;;;14.00;10.25;;;;;10.83;63.17;102834.63;5061520;28;45295;-64
2022/03/17 10:34:56;;;;;;;;;11.00;7.00;;;;;10.90;62.79;102831.19;5053877;28;46298;-61
2022/03/17 10:37:24;;;;;;;;;14.00;12.50;;;;;11.09;62.85;102842.53;5048658;28;45286;-62
2022/03/17 10:39:52;;;;;;;;;12.75;10.75;;;;;11.16;63.99;102839.97;5061476;28;45490;-61
2022/03/17 10:42:19;;;;;;;;;13.50;8.50;;;;;11.22;62.38;102846.94;5061583;28;45517;-61
2022/03/17 10:44:53;;;;;;;;;11.25;10.75;;;;;11.20;62.34;102857.31;5061233;28;46341;-61
2022/03/17 10:47:29;;;;;;;;;12.00;10.00;;;;;11.20;60.72;102870.34;5060976;28;45321;-62
2022/03/17 10:50:15;;;;;;;;;9.50;6.50;;;;;11.12;61.40;102859.03;5061064;28;45316;-63
2022/03/17 10:52:57;;;;;;;;;11.00;7.00;;;;;11.05;60.57;102859.00;5060857;28;45263;-63
2022/03/17 10:55:31;;;;;;;;;13.33;9.67;;;;;11.04;61.35;102865.94;5060583;28;46028;-69
2022/03/17 10:58:18;;;;;;;;;12.50;9.50;;;;;11.04;61.96;102863.34;5060594;28;45258;-64
2022/03/17 11:00:57;;;;;;;;;13.00;13.00;;;;;11.12;61.84;102869.44;5060570;28;45319;-62
2022/03/17 11:03:23;;;;;;;;;10.25;9.50;;;;;11.15;61.39;102873.78;5060574;28;45451;-63
2022/03/17 11:05:51;;;;;;;;;14.75;13.00;;;;;11.04;60.91;102873.75;5060187;28;45438;-62
2022/03/17 11:08:18;;;;;;;;;14.25;13.00;;;;;11.00;61.22;102881.50;5060402;28;45904;-65
2022/03/17 11:10:44;;;;;;;;;16.50;13.50;;;;;11.00;61.75;102884.97;5060543;28;45362;-62
2022/03/17 11:13:11;;;;;;;;;16.75;15.75;;;;;11.06;62.02;102873.75;5060169;28;45642;-62
2022/03/17 11:15:45;;;;;;;;;12.00;9.75;;;;;11.11;61.54;102883.31;5060160;28;46186;-61
2022/03/17 11:18:19;;;;;;;;;9.75;9.75;;;;;11.22;61.57;102894.66;5059840;28;45315;-62
2022/03/17 11:20:45;;;;;;;;;12.25;10.25;;;;;11.24;60.97;102900.75;5060383;28;45422;-62
2022/03/17 11:23:24;;;;;;;;;15.75;12.75;;;;;11.19;59.04;102899.81;5060250;28;45299;-62
2022/03/17 11:25:57;;;;;;;;;14.50;10.00;;;;;11.18;60.64;102892.88;5067760;27;45995;-62
2022/03/17 11:28:35;;;;;;;;;12.00;12.00;;;;;11.14;59.33;102893.75;5060235;28;45274;-63
2022/03/17 11:31:03;;;;;;;;;15.25;13.00;;;;;11.21;61.13;102892.94;5060666;28;45190;-62
2022/03/17 11:33:32;;;;;;;;;19.25;12.00;;;;;11.30;60.45;102899.00;5059550;28;45315;-62